The Little Minch, United Kingdom
Current Conditions -  °F | °C
As of 6:20 AM on Saturday 25 Oct 2014 (Local Time) from EGPL Reporting Station
Drizzle Drizzle  
Wind Chill: 11°   Ceiling: Unl
Heat Index: 11°   Visibility: 6mi
Dew Point:   Wind: 29mph
Humidity: 88%   Direction: 230°SW
Pressure: 29.38"   Gusts: NA
Location:  57.5°N, 7°W
Report Text: EGPL 250520Z AUTO 23025KT 9000 -DZ SCT017/// SCT027/// 11/09 Q0995
Loading
Personal Weather Stations






























Interactive Weather Map
Tropical Storm Tracking
New forecast layout! Learn more

10-Day Weather Forecast

Advertisements
Track Severe Weather on mobile